sensor_id;sensor_type;location;lat;lon;timestamp;pressure;altitude;pressure_sealevel;temperature;humidity
33697;BME280;20031;43.416;23.232;2023-12-20T00:02:10;100263.84;;;3.84;84.18
33697;BME280;20031;43.416;23.232;2023-12-20T00:04:36;100274.84;;;3.86;84.29
33697;BME280;20031;43.416;23.232;2023-12-20T00:07:02;100261.28;;;3.84;84.22
33697;BME280;20031;43.416;23.232;2023-12-20T00:09:28;100261.16;;;3.86;83.89
33697;BME280;20031;43.416;23.232;2023-12-20T00:11:54;100266.09;;;3.89;83.93
33697;BME280;20031;43.416;23.232;2023-12-20T00:14:19;100261.75;;;3.89;84.15
33697;BME280;20031;43.416;23.232;2023-12-20T00:16:45;100255.78;;;3.89;84.00
33697;BME280;20031;43.416;23.232;2023-12-20T00:19:10;100254.97;;;3.88;83.82
33697;BME280;20031;43.416;23.232;2023-12-20T00:21:36;100262.72;;;3.88;83.60
33697;BME280;20031;43.416;23.232;2023-12-20T00:24:01;100255.09;;;3.87;83.97
33697;BME280;20031;43.416;23.232;2023-12-20T00:26:27;100251.78;;;3.85;83.99
33697;BME280;20031;43.416;23.232;2023-12-20T00:28:53;100251.09;;;3.83;84.11
33697;BME280;20031;43.416;23.232;2023-12-20T00:31:18;100248.41;;;3.84;83.76
33697;BME280;20031;43.416;23.232;2023-12-20T00:33:44;100244.41;;;3.80;84.09
33697;BME280;20031;43.416;23.232;2023-12-20T00:36:11;100239.59;;;3.76;83.46
33697;BME280;20031;43.416;23.232;2023-12-20T00:38:36;100240.78;;;3.59;82.88
33697;BME280;20031;43.416;23.232;2023-12-20T00:41:02;100246.56;;;3.40;82.68
33697;BME280;20031;43.416;23.232;2023-12-20T00:43:27;100243.31;;;3.25;83.40
33697;BME280;20031;43.416;23.232;2023-12-20T00:45:53;100239.63;;;3.17;83.26
33697;BME280;20031;43.416;23.232;2023-12-20T00:48:18;100227.91;;;3.13;82.84
33697;BME280;20031;43.416;23.232;2023-12-20T00:50:44;100228.22;;;3.21;83.78
33697;BME280;20031;43.416;23.232;2023-12-20T00:53:09;100225.25;;;3.38;84.31
33697;BME280;20031;43.416;23.232;2023-12-20T00:55:35;100219.22;;;3.50;84.18
33697;BME280;20031;43.416;23.232;2023-12-20T00:58:00;100220.44;;;3.56;84.92
33697;BME280;20031;43.416;23.232;2023-12-20T01:00:25;100210.84;;;3.58;84.56
33697;BME280;20031;43.416;23.232;2023-12-20T01:02:51;100214.81;;;3.62;84.74
33697;BME280;20031;43.416;23.232;2023-12-20T01:05:18;100209.56;;;3.64;84.77
33697;BME280;20031;43.416;23.232;2023-12-20T01:07:44;100205.38;;;3.63;84.68
33697;BME280;20031;43.416;23.232;2023-12-20T01:10:10;100196.00;;;3.62;84.31
33697;BME280;20031;43.416;23.232;2023-12-20T01:12:36;100195.63;;;3.55;84.00
33697;BME280;20031;43.416;23.232;2023-12-20T01:15:01;100198.38;;;3.42;83.70
33697;BME280;20031;43.416;23.232;2023-12-20T01:17:27;100196.66;;;3.30;83.28
33697;BME280;20031;43.416;23.232;2023-12-20T01:19:52;100191.53;;;3.30;83.84
33697;BME280;20031;43.416;23.232;2023-12-20T01:22:18;100182.53;;;3.35;84.19
33697;BME280;20031;43.416;23.232;2023-12-20T01:24:44;100189.72;;;3.43;84.07
33697;BME280;20031;43.416;23.232;2023-12-20T01:27:09;100179.41;;;3.43;84.44
33697;BME280;20031;43.416;23.232;2023-12-20T01:29:34;100181.88;;;3.44;84.53
33697;BME280;20031;43.416;23.232;2023-12-20T01:32:00;100180.25;;;3.43;84.68
33697;BME280;20031;43.416;23.232;2023-12-20T01:34:25;100184.56;;;3.43;85.01
33697;BME280;20031;43.416;23.232;2023-12-20T01:36:51;100174.94;;;3.34;84.28
33697;BME280;20031;43.416;23.232;2023-12-20T01:39:17;100168.66;;;3.14;83.76
33697;BME280;20031;43.416;23.232;2023-12-20T01:41:43;100163.06;;;2.97;84.06
33697;BME280;20031;43.416;23.232;2023-12-20T01:44:08;100156.75;;;2.78;83.60
33697;BME280;20031;43.416;23.232;2023-12-20T01:46:34;100158.16;;;2.58;83.37
33697;BME280;20031;43.416;23.232;2023-12-20T01:48:59;100149.63;;;2.46;83.90
33697;BME280;20031;43.416;23.232;2023-12-20T01:51:26;100152.31;;;2.32;83.97
33697;BME280;20031;43.416;23.232;2023-12-20T01:53:54;100149.97;;;2.16;83.86
33697;BME280;20031;43.416;23.232;2023-12-20T01:56:20;100139.53;;;2.07;83.83
33697;BME280;20031;43.416;23.232;2023-12-20T01:58:46;100144.66;;;2.07;83.84
33697;BME280;20031;43.416;23.232;2023-12-20T02:01:13;100138.69;;;2.06;84.03
33697;BME280;20031;43.416;23.232;2023-12-20T02:03:42;100133.53;;;2.06;84.44
33697;BME280;20031;43.416;23.232;2023-12-20T02:06:09;100127.06;;;2.01;84.13
33697;BME280;20031;43.416;23.232;2023-12-20T02:08:35;100120.63;;;1.96;83.85
33697;BME280;20031;43.416;23.232;2023-12-20T02:11:01;100119.78;;;1.95;84.39
33697;BME280;20031;43.416;23.232;2023-12-20T02:13:26;100117.31;;;1.94;84.58
33697;BME280;20031;43.416;23.232;2023-12-20T02:15:52;100116.72;;;1.90;84.15
33697;BME280;20031;43.416;23.232;2023-12-20T02:18:18;100118.78;;;1.85;84.39
33697;BME280;20031;43.416;23.232;2023-12-20T02:20:43;100113.63;;;1.85;84.40
33697;BME280;20031;43.416;23.232;2023-12-20T02:23:09;100103.38;;;1.85;84.74
33697;BME280;20031;43.416;23.232;2023-12-20T02:25:34;100110.16;;;1.86;84.40
33697;BME280;20031;43.416;23.232;2023-12-20T02:28:00;100104.91;;;1.88;84.71
33697;BME280;20031;43.416;23.232;2023-12-20T02:30:26;100099.56;;;1.91;85.20
33697;BME280;20031;43.416;23.232;2023-12-20T02:32:52;100099.47;;;1.92;84.73
33697;BME280;20031;43.416;23.232;2023-12-20T02:35:18;100091.06;;;1.90;84.91
33697;BME280;20031;43.416;23.232;2023-12-20T02:37:44;100084.69;;;1.83;84.61
33697;BME280;20031;43.416;23.232;2023-12-20T02:40:09;100084.06;;;1.80;85.03
33697;BME280;20031;43.416;23.232;2023-12-20T02:42:35;100092.72;;;1.79;84.82
33697;BME280;20031;43.416;23.232;2023-12-20T02:45:01;100082.22;;;1.69;84.72
33697;BME280;20031;43.416;23.232;2023-12-20T02:47:26;100078.94;;;1.67;84.95
33697;BME280;20031;43.416;23.232;2023-12-20T02:49:52;100079.16;;;1.64;84.85
33697;BME280;20031;43.416;23.232;2023-12-20T02:52:18;100073.72;;;1.56;84.25
33697;BME280;20031;43.416;23.232;2023-12-20T02:54:43;100073.00;;;1.54;85.11
33697;BME280;20031;43.416;23.232;2023-12-20T02:57:09;100071.94;;;1.57;84.99
33697;BME280;20031;43.416;23.232;2023-12-20T02:59:34;100064.25;;;1.57;85.02
33697;BME280;20031;43.416;23.232;2023-12-20T03:02:00;100066.13;;;1.55;84.93
33697;BME280;20031;43.416;23.232;2023-12-20T03:04:25;100060.97;;;1.55;84.83
33697;BME280;20031;43.416;23.232;2023-12-20T03:06:50;100059.53;;;1.51;84.73
33697;BME280;20031;43.416;23.232;2023-12-20T03:09:16;100061.19;;;1.52;85.08
33697;BME280;20031;43.416;23.232;2023-12-20T03:11:41;100065.41;;;1.53;85.48
33697;BME280;20031;43.416;23.232;2023-12-20T03:14:07;100062.09;;;1.51;85.15
33697;BME280;20031;43.416;23.232;2023-12-20T03:16:32;100060.56;;;1.49;85.43
33697;BME280;20031;43.416;23.232;2023-12-20T03:18:58;100059.84;;;1.47;85.38
33697;BME280;20031;43.416;23.232;2023-12-20T03:21:23;100059.84;;;1.47;85.66
33697;BME280;20031;43.416;23.232;2023-12-20T03:23:49;100056.38;;;1.48;85.59
33697;BME280;20031;43.416;23.232;2023-12-20T03:26:14;100054.00;;;1.45;85.73
33697;BME280;20031;43.416;23.232;2023-12-20T03:28:40;100053.06;;;1.46;85.27
33697;BME280;20031;43.416;23.232;2023-12-20T03:31:05;100044.88;;;1.41;85.13
33697;BME280;20031;43.416;23.232;2023-12-20T03:33:31;100046.00;;;1.37;85.04
33697;BME280;20031;43.416;23.232;2023-12-20T03:35:56;100052.97;;;1.35;85.42
33697;BME280;20031;43.416;23.232;2023-12-20T03:38:22;100041.38;;;1.29;85.32
33697;BME280;20031;43.416;23.232;2023-12-20T03:40:49;100039.31;;;1.34;85.10
33697;BME280;20031;43.416;23.232;2023-12-20T03:43:15;100035.19;;;1.32;85.19
33697;BME280;20031;43.416;23.232;2023-12-20T03:45:42;100044.53;;;1.33;85.65
33697;BME280;20031;43.416;23.232;2023-12-20T03:48:07;100044.44;;;1.34;85.28
33697;BME280;20031;43.416;23.232;2023-12-20T03:50:32;100044.66;;;1.31;85.17
33697;BME280;20031;43.416;23.232;2023-12-20T03:52:58;100039.22;;;1.36;85.78
33697;BME280;20031;43.416;23.232;2023-12-20T03:55:23;100035.84;;;1.35;85.62
33697;BME280;20031;43.416;23.232;2023-12-20T03:57:49;100040.25;;;1.33;85.92
33697;BME280;20031;43.416;23.232;2023-12-20T04:00:14;100037.59;;;1.35;85.37
33697;BME280;20031;43.416;23.232;2023-12-20T04:02:41;100037.38;;;1.38;85.89
33697;BME280;20031;43.416;23.232;2023-12-20T04:05:08;100029.16;;;1.33;85.55
33697;BME280;20031;43.416;23.232;2023-12-20T04:07:34;100034.91;;;1.24;84.93
33697;BME280;20031;43.416;23.232;2023-12-20T04:10:00;100030.28;;;1.16;85.13
33697;BME280;20031;43.416;23.232;2023-12-20T04:12:27;100028.03;;;1.12;85.32
33697;BME280;20031;43.416;23.232;2023-12-20T04:14:52;100018.69;;;1.11;85.25
33697;BME280;20031;43.416;23.232;2023-12-20T04:17:18;100022.78;;;1.13;85.27
33697;BME280;20031;43.416;23.232;2023-12-20T04:19:43;100016.94;;;1.11;85.95
33697;BME280;20031;43.416;23.232;2023-12-20T04:22:09;100024.63;;;1.11;85.31
33697;BME280;20031;43.416;23.232;2023-12-20T04:24:34;100016.31;;;1.08;85.58
33697;BME280;20031;43.416;23.232;2023-12-20T04:27:00;100011.41;;;1.05;85.17
33697;BME280;20031;43.416;23.232;2023-12-20T04:29:26;100000.81;;;0.97;85.00
33697;BME280;20031;43.416;23.232;2023-12-20T04:31:51;100012.63;;;1.00;85.21
33697;BME280;20031;43.416;23.232;2023-12-20T04:34:17;99998.16;;;0.99;85.12
33697;BME280;20031;43.416;23.232;2023-12-20T04:36:42;99999.06;;;0.98;85.66
33697;BME280;20031;43.416;23.232;2023-12-20T04:39:08;99998.25;;;0.97;85.45
33697;BME280;20031;43.416;23.232;2023-12-20T04:41:33;99996.72;;;0.95;85.70
33697;BME280;20031;43.416;23.232;2023-12-20T04:43:59;99996.59;;;0.96;85.63
33697;BME280;20031;43.416;23.232;2023-12-20T04:46:25;99993.72;;;1.00;85.38
33697;BME280;20031;43.416;23.232;2023-12-20T04:48:51;99991.81;;;1.04;85.85
33697;BME280;20031;43.416;23.232;2023-12-20T04:51:16;99992.94;;;1.00;85.54
33697;BME280;20031;43.416;23.232;2023-12-20T04:53:42;99993.34;;;0.94;85.61
33697;BME280;20031;43.416;23.232;2023-12-20T04:56:07;99986.56;;;0.93;85.10
33697;BME280;20031;43.416;23.232;2023-12-20T04:58:33;99983.88;;;0.95;85.87
33697;BME280;20031;43.416;23.232;2023-12-20T05:00:58;99987.50;;;0.92;85.61
33697;BME280;20031;43.416;23.232;2023-12-20T05:03:23;99982.75;;;0.86;85.29
33697;BME280;20031;43.416;23.232;2023-12-20T05:05:49;99995.34;;;0.89;85.42
33697;BME280;20031;43.416;23.232;2023-12-20T05:08:14;99986.47;;;0.82;85.04
33697;BME280;20031;43.416;23.232;2023-12-20T05:10:40;99984.81;;;0.81;85.58
33697;BME280;20031;43.416;23.232;2023-12-20T05:13:06;99982.13;;;0.83;85.67
33697;BME280;20031;43.416;23.232;2023-12-20T05:15:31;99994.56;;;0.89;85.69
33697;BME280;20031;43.416;23.232;2023-12-20T05:17:57;99987.06;;;0.86;85.50
33697;BME280;20031;43.416;23.232;2023-12-20T05:20:22;99988.81;;;0.85;85.55
33697;BME280;20031;43.416;23.232;2023-12-20T05:22:48;99986.16;;;0.87;85.69
33697;BME280;20031;43.416;23.232;2023-12-20T05:25:14;99982.66;;;0.88;85.37
33697;BME280;20031;43.416;23.232;2023-12-20T05:27:39;99981.63;;;0.90;85.92
33697;BME280;20031;43.416;23.232;2023-12-20T05:30:05;99981.75;;;0.89;85.31
33697;BME280;20031;43.416;23.232;2023-12-20T05:32:31;99971.47;;;0.89;85.13
33697;BME280;20031;43.416;23.232;2023-12-20T05:34:56;99976.59;;;0.89;85.79
33697;BME280;20031;43.416;23.232;2023-12-20T05:37:22;99970.88;;;0.85;85.16
33697;BME280;20031;43.416;23.232;2023-12-20T05:39:47;99964.31;;;0.81;84.91
33697;BME280;20031;43.416;23.232;2023-12-20T05:42:12;99965.81;;;0.71;85.09
33697;BME280;20031;43.416;23.232;2023-12-20T05:44:38;99967.53;;;0.71;85.63
33697;BME280;20031;43.416;23.232;2023-12-20T05:47:03;99958.44;;;0.67;85.70
33697;BME280;20031;43.416;23.232;2023-12-20T05:49:29;99955.97;;;0.65;85.10
33697;BME280;20031;43.416;23.232;2023-12-20T05:51:54;99960.06;;;0.68;85.49
33697;BME280;20031;43.416;23.232;2023-12-20T05:54:20;99954.94;;;0.68;85.36
33697;BME280;20031;43.416;23.232;2023-12-20T05:56:45;99961.59;;;0.70;86.03
33697;BME280;20031;43.416;23.232;2023-12-20T05:59:11;99956.09;;;0.76;86.22
33697;BME280;20031;43.416;23.232;2023-12-20T06:01:36;99945.63;;;0.79;86.24
33697;BME280;20031;43.416;23.232;2023-12-20T06:04:02;99944.50;;;0.83;85.94
33697;BME280;20031;43.416;23.232;2023-12-20T06:06:28;99956.31;;;0.86;85.83
33697;BME280;20031;43.416;23.232;2023-12-20T06:08:53;99947.41;;;0.91;85.64
33697;BME280;20031;43.416;23.232;2023-12-20T06:11:19;99941.25;;;0.94;85.82
33697;BME280;20031;43.416;23.232;2023-12-20T06:13:44;99943.50;;;0.98;85.60
33697;BME280;20031;43.416;23.232;2023-12-20T06:16:10;99939.63;;;1.05;85.74
33697;BME280;20031;43.416;23.232;2023-12-20T06:18:35;99938.78;;;1.17;85.98
33697;BME280;20031;43.416;23.232;2023-12-20T06:21:02;99934.47;;;1.30;86.27
33697;BME280;20031;43.416;23.232;2023-12-20T06:23:27;99932.81;;;1.41;85.71
33697;BME280;20031;43.416;23.232;2023-12-20T06:25:53;99925.75;;;1.45;85.41
33697;BME280;20031;43.416;23.232;2023-12-20T06:28:18;99931.38;;;1.50;85.28
33697;BME280;20031;43.416;23.232;2023-12-20T06:30:44;99924.69;;;1.59;85.67
33697;BME280;20031;43.416;23.232;2023-12-20T06:33:11;99931.34;;;1.74;85.81
33697;BME280;20031;43.416;23.232;2023-12-20T06:35:36;99928.72;;;1.87;85.48
33697;BME280;20031;43.416;23.232;2023-12-20T06:38:02;99927.13;;;1.97;85.65
33697;BME280;20031;43.416;23.232;2023-12-20T06:40:27;99930.81;;;2.05;85.14
33697;BME280;20031;43.416;23.232;2023-12-20T06:42:53;99927.59;;;2.14;85.20
33697;BME280;20031;43.416;23.232;2023-12-20T06:45:18;99920.16;;;2.22;85.35
33697;BME280;20031;43.416;23.232;2023-12-20T06:47:43;99915.06;;;2.33;84.96
33697;BME280;20031;43.416;23.232;2023-12-20T06:50:09;99915.72;;;2.47;85.03
33697;BME280;20031;43.416;23.232;2023-12-20T06:52:34;99913.41;;;2.55;84.88
33697;BME280;20031;43.416;23.232;2023-12-20T06:55:00;99918.44;;;2.67;84.39
33697;BME280;20031;43.416;23.232;2023-12-20T06:57:26;99906.31;;;2.80;84.52
33697;BME280;20031;43.416;23.232;2023-12-20T06:59:52;99902.03;;;2.92;84.13
33697;BME280;20031;43.416;23.232;2023-12-20T07:02:17;99898.78;;;3.01;84.18
33697;BME280;20031;43.416;23.232;2023-12-20T07:04:43;99900.19;;;3.15;84.27
33697;BME280;20031;43.416;23.232;2023-12-20T07:07:08;99897.28;;;3.31;83.92
33697;BME280;20031;43.416;23.232;2023-12-20T07:09:34;99896.31;;;3.43;83.52
33697;BME280;20031;43.416;23.232;2023-12-20T07:11:59;99892.81;;;3.54;83.55
33697;BME280;20031;43.416;23.232;2023-12-20T07:14:25;99894.91;;;3.71;82.98
33697;BME280;20031;43.416;23.232;2023-12-20T07:16:50;99899.56;;;3.88;82.90
33697;BME280;20031;43.416;23.232;2023-12-20T07:19:16;99891.28;;;4.05;82.42
33697;BME280;20031;43.416;23.232;2023-12-20T07:21:41;99887.72;;;4.28;82.64
33697;BME280;20031;43.416;23.232;2023-12-20T07:24:07;99882.84;;;4.45;81.87
33697;BME280;20031;43.416;23.232;2023-12-20T07:26:32;99875.22;;;4.64;81.42
33697;BME280;20031;43.416;23.232;2023-12-20T07:28:58;99870.56;;;4.78;80.88
33697;BME280;20031;43.416;23.232;2023-12-20T07:31:24;99866.91;;;4.81;80.50
33697;BME280;20031;43.416;23.232;2023-12-20T07:33:49;99871.19;;;4.91;80.03
33697;BME280;20031;43.416;23.232;2023-12-20T07:36:15;99869.84;;;4.97;79.66
33697;BME280;20031;43.416;23.232;2023-12-20T07:38:40;99865.22;;;4.91;78.99
33697;BME280;20031;43.416;23.232;2023-12-20T07:41:09;99872.56;;;4.95;78.31
33697;BME280;20031;43.416;23.232;2023-12-20T07:43:35;99855.88;;;4.99;78.93
33697;BME280;20031;43.416;23.232;2023-12-20T07:46:05;99858.47;;;5.29;78.83
33697;BME280;20031;43.416;23.232;2023-12-20T07:48:30;99862.63;;;5.50;78.01
33697;BME280;20031;43.416;23.232;2023-12-20T07:50:55;99859.63;;;5.55;77.53
33697;BME280;20031;43.416;23.232;2023-12-20T07:53:21;99856.16;;;5.74;77.35
33697;BME280;20031;43.416;23.232;2023-12-20T07:55:46;99857.03;;;6.12;77.02
33697;BME280;20031;43.416;23.232;2023-12-20T07:58:12;99852.41;;;6.44;76.72
33697;BME280;20031;43.416;23.232;2023-12-20T08:00:37;99846.09;;;6.65;75.73
33697;BME280;20031;43.416;23.232;2023-12-20T08:03:03;99857.38;;;6.74;74.90
33697;BME280;20031;43.416;23.232;2023-12-20T08:05:28;99851.13;;;6.67;74.46
33697;BME280;20031;43.416;23.232;2023-12-20T08:08:22;99849.16;;;6.52;73.70
33697;BME280;20031;43.416;23.232;2023-12-20T08:10:51;99840.69;;;6.50;74.02
33697;BME280;20031;43.416;23.232;2023-12-20T08:13:16;99841.91;;;6.46;73.70
33697;BME280;20031;43.416;23.232;2023-12-20T08:15:42;99847.53;;;6.32;73.00
33697;BME280;20031;43.416;23.232;2023-12-20T08:18:07;99841.78;;;6.28;73.03
33697;BME280;20031;43.416;23.232;2023-12-20T08:20:33;99839.78;;;6.32;73.70
33697;BME280;20031;43.416;23.232;2023-12-20T08:22:58;99837.53;;;6.56;73.36
33697;BME280;20031;43.416;23.232;2023-12-20T08:25:23;99829.91;;;6.54;72.83
33697;BME280;20031;43.416;23.232;2023-12-20T08:27:49;99819.59;;;6.45;72.64
33697;BME280;20031;43.416;23.232;2023-12-20T08:30:14;99820.41;;;6.36;72.98
33697;BME280;20031;43.416;23.232;2023-12-20T08:32:42;99830.09;;;6.34;72.59
33697;BME280;20031;43.416;23.232;2023-12-20T08:35:07;99820.84;;;6.41;72.95
33697;BME280;20031;43.416;23.232;2023-12-20T08:37:34;99814.00;;;6.49;72.64
33697;BME280;20031;43.416;23.232;2023-12-20T08:39:59;99819.59;;;6.45;72.54
33697;BME280;20031;43.416;23.232;2023-12-20T08:42:24;99810.72;;;6.47;73.24
33697;BME280;20031;43.416;23.232;2023-12-20T08:44:56;99808.81;;;6.58;73.11
33697;BME280;20031;43.416;23.232;2023-12-20T08:47:21;99808.00;;;6.58;73.06
33697;BME280;20031;43.416;23.232;2023-12-20T08:49:46;99800.09;;;6.59;72.98
33697;BME280;20031;43.416;23.232;2023-12-20T08:52:12;99808.50;;;6.71;72.73
33697;BME280;20031;43.416;23.232;2023-12-20T08:54:38;99792.47;;;6.67;72.77
33697;BME280;20031;43.416;23.232;2023-12-20T08:57:03;99788.53;;;6.63;72.80
33697;BME280;20031;43.416;23.232;2023-12-20T08:59:31;99785.13;;;6.63;73.10
33697;BME280;20031;43.416;23.232;2023-12-20T09:01:56;99777.22;;;6.64;72.95
33697;BME280;20031;43.416;23.232;2023-12-20T09:04:22;99770.53;;;6.71;72.66
33697;BME280;20031;43.416;23.232;2023-12-20T09:06:47;99765.75;;;6.76;73.19
33697;BME280;20031;43.416;23.232;2023-12-20T09:09:12;99773.53;;;7.03;73.30
33697;BME280;20031;43.416;23.232;2023-12-20T09:11:41;99771.31;;;7.08;72.88
33697;BME280;20031;43.416;23.232;2023-12-20T09:14:07;99763.94;;;7.13;72.98
33697;BME280;20031;43.416;23.232;2023-12-20T09:16:32;99758.19;;;7.19;72.66
33697;BME280;20031;43.416;23.232;2023-12-20T09:18:58;99761.84;;;7.26;72.86
33697;BME280;20031;43.416;23.232;2023-12-20T09:21:23;99763.84;;;7.32;72.29
33697;BME280;20031;43.416;23.232;2023-12-20T09:23:49;99749.63;;;7.36;72.42
33697;BME280;20031;43.416;23.232;2023-12-20T09:26:14;99740.47;;;7.41;72.13
33697;BME280;20031;43.416;23.232;2023-12-20T09:28:40;99736.25;;;7.40;71.74
33697;BME280;20031;43.416;23.232;2023-12-20T09:31:05;99739.28;;;7.36;71.47
33697;BME280;20031;43.416;23.232;2023-12-20T09:33:32;99739.28;;;7.36;71.47
33697;BME280;20031;43.416;23.232;2023-12-20T09:35:57;99727.66;;;7.40;71.90
33697;BME280;20031;43.416;23.232;2023-12-20T09:38:23;99722.03;;;7.44;71.62
33697;BME280;20031;43.416;23.232;2023-12-20T09:40:48;99716.34;;;7.41;71.26
33697;BME280;20031;43.416;23.232;2023-12-20T09:43:15;99719.00;;;7.49;71.39
33697;BME280;20031;43.416;23.232;2023-12-20T09:45:46;99710.94;;;7.52;71.13
33697;BME280;20031;43.416;23.232;2023-12-20T09:48:12;99713.22;;;7.55;71.24
33697;BME280;20031;43.416;23.232;2023-12-20T09:50:40;99692.06;;;7.59;71.58
33697;BME280;20031;43.416;23.232;2023-12-20T09:53:08;99692.63;;;7.70;71.18
33697;BME280;20031;43.416;23.232;2023-12-20T09:55:36;99695.81;;;8.42;72.23
33697;BME280;20031;43.416;23.232;2023-12-20T09:58:02;99679.59;;;9.30;71.47
33697;BME280;20031;43.416;23.232;2023-12-20T10:00:27;99674.13;;;9.65;69.38
33697;BME280;20031;43.416;23.232;2023-12-20T10:03:03;99663.88;;;10.18;69.23
33697;BME280;20031;43.416;23.232;2023-12-20T10:05:32;99656.31;;;10.39;67.28
33697;BME280;20031;43.416;23.232;2023-12-20T10:07:59;99647.41;;;10.72;66.09
33697;BME280;20031;43.416;23.232;2023-12-20T10:10:25;99639.66;;;11.02;64.73
33697;BME280;20031;43.416;23.232;2023-12-20T10:13:04;99635.75;;;10.98;63.67
33697;BME280;20031;43.416;23.232;2023-12-20T10:15:31;99627.84;;;11.14;63.89
33697;BME280;20031;43.416;23.232;2023-12-20T10:17:57;99626.97;;;11.52;62.36
33697;BME280;20031;43.416;23.232;2023-12-20T10:20:23;99614.56;;;11.54;60.36
33697;BME280;20031;43.416;23.232;2023-12-20T10:22:49;99619.56;;;11.33;59.26
33697;BME280;20031;43.416;23.232;2023-12-20T10:25:14;99604.44;;;11.06;59.18
33697;BME280;20031;43.416;23.232;2023-12-20T10:27:40;99602.94;;;11.34;59.97
33697;BME280;20031;43.416;23.232;2023-12-20T10:30:06;99594.31;;;11.56;59.51
33697;BME280;20031;43.416;23.232;2023-12-20T10:32:31;99595.72;;;11.80;58.99
33697;BME280;20031;43.416;23.232;2023-12-20T10:34:57;99595.91;;;11.79;57.74
33697;BME280;20031;43.416;23.232;2023-12-20T10:37:24;99588.81;;;11.51;57.41
33697;BME280;20031;43.416;23.232;2023-12-20T10:39:51;99584.28;;;11.22;57.91
33697;BME280;20031;43.416;23.232;2023-12-20T10:42:22;99582.00;;;10.97;58.07
33697;BME280;20031;43.416;23.232;2023-12-20T10:44:49;99572.06;;;10.70;58.16
33697;BME280;20031;43.416;23.232;2023-12-20T10:47:17;99581.28;;;10.51;58.96
33697;BME280;20031;43.416;23.232;2023-12-20T10:49:46;99571.91;;;10.34;59.49
33697;BME280;20031;43.416;23.232;2023-12-20T10:52:12;99574.06;;;10.22;59.67
33697;BME280;20031;43.416;23.232;2023-12-20T10:54:41;99573.16;;;10.08;60.29
33697;BME280;20031;43.416;23.232;2023-12-20T10:57:07;99579.53;;;9.97;61.30
33697;BME280;20031;43.416;23.232;2023-12-20T10:59:36;99584.06;;;9.95;62.04
33697;BME280;20031;43.416;23.232;2023-12-20T11:02:03;99576.56;;;9.92;62.27
33697;BME280;20031;43.416;23.232;2023-12-20T11:04:55;99572.53;;;9.98;63.10
33697;BME280;20031;43.416;23.232;2023-12-20T11:07:27;99564.50;;;10.15;63.49
33697;BME280;20031;43.416;23.232;2023-12-20T11:10:03;99546.28;;;10.15;62.75
33697;BME280;20031;43.416;23.232;2023-12-20T11:12:47;99543.28;;;10.34;62.75
33697;BME280;20031;43.416;23.232;2023-12-20T11:15:14;99536.47;;;10.33;62.43
33697;BME280;20031;43.416;23.232;2023-12-20T11:17:40;99544.63;;;10.30;62.83
33697;BME280;20031;43.416;23.232;2023-12-20T11:20:09;99535.88;;;10.23;62.61
33697;BME280;20031;43.416;23.232;2023-12-20T11:22:36;99533.91;;;10.25;62.82
33697;BME280;20031;43.416;23.232;2023-12-20T11:25:05;99530.25;;;10.42;62.59
33697;BME280;20031;43.416;23.232;2023-12-20T11:27:31;99520.06;;;10.63;62.23
33697;BME280;20031;43.416;23.232;2023-12-20T11:29:58;99528.22;;;10.82;61.49
33697;BME280;20031;43.416;23.232;2023-12-20T11:37:21;99523.59;;;11.14;58.63
33697;BME280;20031;43.416;23.232;2023-12-20T11:40:00;99515.41;;;11.17;58.08
33697;BME280;20031;43.416;23.232;2023-12-20T11:42:25;99509.59;;;11.15;57.55
33697;BME280;20031;43.416;23.232;2023-12-20T11:44:51;99494.66;;;11.09;57.49
33697;BME280;20031;43.416;23.232;2023-12-20T11:47:17;99494.16;;;11.28;58.27
33697;BME280;20031;43.416;23.232;2023-12-20T11:49:46;99486.72;;;11.39;57.87
33697;BME280;20031;43.416;23.232;2023-12-20T11:52:12;99478.72;;;11.41;58.31
33697;BME280;20031;43.416;23.232;2023-12-20T11:54:38;99463.88;;;11.41;58.00
33697;BME280;20031;43.416;23.232;2023-12-20T11:57:04;99463.78;;;11.35;58.14
33697;BME280;20031;43.416;23.232;2023-12-20T11:59:31;99466.09;;;11.30;58.55
33697;BME280;20031;43.416;23.232;2023-12-20T12:01:58;99456.75;;;11.21;59.01
33697;BME280;20031;43.416;23.232;2023-12-20T12:04:27;99448.09;;;11.06;59.38
33697;BME280;20031;43.416;23.232;2023-12-20T12:06:53;99447.84;;;10.93;60.36
33697;BME280;20031;43.416;23.232;2023-12-20T12:09:19;99449.41;;;10.88;60.87
33697;BME280;20031;43.416;23.232;2023-12-20T12:11:45;99458.25;;;10.79;61.38
33697;BME280;20031;43.416;23.232;2023-12-20T12:14:10;99464.31;;;10.71;61.97
33697;BME280;20031;43.416;23.232;2023-12-20T12:16:36;99452.53;;;10.61;62.37
33697;BME280;20031;43.416;23.232;2023-12-20T12:19:01;99451.09;;;10.51;62.67
33697;BME280;20031;43.416;23.232;2023-12-20T12:21:27;99449.56;;;10.42;63.24
33697;BME280;20031;43.416;23.232;2023-12-20T12:23:52;99440.19;;;10.33;63.42
33697;BME280;20031;43.416;23.232;2023-12-20T12:26:18;99454.19;;;10.24;63.71
33697;BME280;20031;43.416;23.232;2023-12-20T12:28:44;99444.81;;;10.15;63.90
33697;BME280;20031;43.416;23.232;2023-12-20T12:31:13;99427.31;;;10.01;64.38
33697;BME280;20031;43.416;23.232;2023-12-20T12:33:42;99431.63;;;9.94;64.35
33697;BME280;20031;43.416;23.232;2023-12-20T12:36:10;99436.28;;;9.91;65.17
33697;BME280;20031;43.416;23.232;2023-12-20T12:38:36;99433.56;;;9.84;65.46
33697;BME280;20031;43.416;23.232;2023-12-20T12:41:02;99428.84;;;9.80;65.34
33697;BME280;20031;43.416;23.232;2023-12-20T12:43:27;99421.56;;;9.75;65.42
33697;BME280;20031;43.416;23.232;2023-12-20T12:45:53;99427.75;;;9.74;65.66
33697;BME280;20031;43.416;23.232;2023-12-20T12:48:19;99420.09;;;9.73;66.42
33697;BME280;20031;43.416;23.232;2023-12-20T12:50:45;99424.00;;;9.77;66.13
33697;BME280;20031;43.416;23.232;2023-12-20T12:53:11;99423.66;;;9.80;66.33
33697;BME280;20031;43.416;23.232;2023-12-20T12:55:36;99418.59;;;9.86;66.39